sensor_id;sensor_type;location;lat;lon;timestamp;temperature;humidity
37340;DHT22;23223;51.006;7.610;2022-08-03T00:00:45;17.40;99.90
37340;DHT22;23223;51.006;7.610;2022-08-03T00:03:11;17.60;99.90
37340;DHT22;23223;51.006;7.610;2022-08-03T00:05:37;17.80;99.90
37340;DHT22;23223;51.006;7.610;2022-08-03T00:08:02;17.90;99.90
37340;DHT22;23223;51.006;7.610;2022-08-03T00:10:28;17.90;99.90
37340;DHT22;23223;51.006;7.610;2022-08-03T00:12:54;17.70;99.90
37340;DHT22;23223;51.006;7.610;2022-08-03T00:15:20;17.60;99.90
37340;DHT22;23223;51.006;7.610;2022-08-03T00:17:45;17.40;99.90
37340;DHT22;23223;51.006;7.610;2022-08-03T00:20:11;17.40;99.90
37340;DHT22;23223;51.006;7.610;2022-08-03T00:22:36;17.50;99.90
37340;DHT22;23223;51.006;7.610;2022-08-03T00:25:02;17.60;99.90
37340;DHT22;23223;51.006;7.610;2022-08-03T00:27:28;17.60;99.90
37340;DHT22;23223;51.006;7.610;2022-08-03T00:29:54;17.60;99.90
37340;DHT22;23223;51.006;7.610;2022-08-03T00:32:19;17.50;99.90
37340;DHT22;23223;51.006;7.610;2022-08-03T00:34:45;17.40;99.90
37340;DHT22;23223;51.006;7.610;2022-08-03T00:37:10;17.20;99.90
37340;DHT22;23223;51.006;7.610;2022-08-03T00:39:36;17.20;99.90
37340;DHT22;23223;51.006;7.610;2022-08-03T00:42:03;17.30;99.90
37340;DHT22;23223;51.006;7.610;2022-08-03T00:44:28;17.20;99.90
37340;DHT22;23223;51.006;7.610;2022-08-03T00:46:54;17.00;99.90
37340;DHT22;23223;51.006;7.610;2022-08-03T00:49:20;16.90;99.90
37340;DHT22;23223;51.006;7.610;2022-08-03T00:51:46;16.70;99.90
37340;DHT22;23223;51.006;7.610;2022-08-03T00:54:12;16.60;99.90
37340;DHT22;23223;51.006;7.610;2022-08-03T00:56:40;16.50;99.90
37340;DHT22;23223;51.006;7.610;2022-08-03T00:59:05;16.40;99.90
37340;DHT22;23223;51.006;7.610;2022-08-03T01:01:31;16.30;99.90
37340;DHT22;23223;51.006;7.610;2022-08-03T01:03:57;16.30;99.90
37340;DHT22;23223;51.006;7.610;2022-08-03T01:06:35;16.20;99.90
37340;DHT22;23223;51.006;7.610;2022-08-03T01:09:17;16.20;99.90
37340;DHT22;23223;51.006;7.610;2022-08-03T01:14:43;16.10;99.90
37340;DHT22;23223;51.006;7.610;2022-08-03T01:17:26;16.10;99.90
37340;DHT22;23223;51.006;7.610;2022-08-03T01:19:59;16.10;99.90
37340;DHT22;23223;51.006;7.610;2022-08-03T01:28:14;16.70;99.90
37340;DHT22;23223;51.006;7.610;2022-08-03T01:30:45;16.60;99.90
37340;DHT22;23223;51.006;7.610;2022-08-03T01:33:16;16.60;99.90
37340;DHT22;23223;51.006;7.610;2022-08-03T01:36:02;16.50;99.90
37340;DHT22;23223;51.006;7.610;2022-08-03T01:38:34;16.50;99.90
37340;DHT22;23223;51.006;7.610;2022-08-03T01:41:07;16.40;99.90
37340;DHT22;23223;51.006;7.610;2022-08-03T01:43:36;16.30;99.90
37340;DHT22;23223;51.006;7.610;2022-08-03T01:46:04;16.20;99.90
37340;DHT22;23223;51.006;7.610;2022-08-03T01:48:31;16.10;99.90
37340;DHT22;23223;51.006;7.610;2022-08-03T01:50:58;15.90;99.90
37340;DHT22;23223;51.006;7.610;2022-08-03T01:53:25;15.80;99.90
37340;DHT22;23223;51.006;7.610;2022-08-03T01:55:54;15.80;99.90
37340;DHT22;23223;51.006;7.610;2022-08-03T01:58:23;15.80;99.90
37340;DHT22;23223;51.006;7.610;2022-08-03T02:00:50;15.80;99.90
37340;DHT22;23223;51.006;7.610;2022-08-03T02:03:17;15.90;99.90
37340;DHT22;23223;51.006;7.610;2022-08-03T02:05:46;16.00;99.90
37340;DHT22;23223;51.006;7.610;2022-08-03T02:08:13;16.00;99.90
37340;DHT22;23223;51.006;7.610;2022-08-03T02:10:41;16.00;99.90
37340;DHT22;23223;51.006;7.610;2022-08-03T02:13:08;16.00;99.90
37340;DHT22;23223;51.006;7.610;2022-08-03T02:15:36;15.90;99.90
37340;DHT22;23223;51.006;7.610;2022-08-03T02:18:04;16.00;99.90
37340;DHT22;23223;51.006;7.610;2022-08-03T02:20:31;16.20;99.90
37340;DHT22;23223;51.006;7.610;2022-08-03T02:22:58;16.60;99.90
37340;DHT22;23223;51.006;7.610;2022-08-03T02:25:24;16.70;99.90
37340;DHT22;23223;51.006;7.610;2022-08-03T02:27:51;16.50;99.90
37340;DHT22;23223;51.006;7.610;2022-08-03T02:30:20;16.30;99.90
37340;DHT22;23223;51.006;7.610;2022-08-03T02:32:52;16.20;99.90
37340;DHT22;23223;51.006;7.610;2022-08-03T02:35:20;16.00;99.90
37340;DHT22;23223;51.006;7.610;2022-08-03T02:37:50;15.90;99.90
37340;DHT22;23223;51.006;7.610;2022-08-03T02:40:18;15.90;99.90
37340;DHT22;23223;51.006;7.610;2022-08-03T02:42:46;15.90;99.90
37340;DHT22;23223;51.006;7.610;2022-08-03T02:45:14;15.80;99.90
37340;DHT22;23223;51.006;7.610;2022-08-03T02:47:41;15.70;99.90
37340;DHT22;23223;51.006;7.610;2022-08-03T02:50:11;15.80;99.90
37340;DHT22;23223;51.006;7.610;2022-08-03T02:52:37;15.90;99.90
37340;DHT22;23223;51.006;7.610;2022-08-03T02:55:05;15.90;99.90
37340;DHT22;23223;51.006;7.610;2022-08-03T02:57:33;15.80;99.90
37340;DHT22;23223;51.006;7.610;2022-08-03T03:00:00;15.70;99.90
37340;DHT22;23223;51.006;7.610;2022-08-03T03:02:27;15.90;99.90
37340;DHT22;23223;51.006;7.610;2022-08-03T03:04:54;16.30;99.90
37340;DHT22;23223;51.006;7.610;2022-08-03T03:07:21;16.50;99.90
37340;DHT22;23223;51.006;7.610;2022-08-03T03:09:47;16.30;99.90
37340;DHT22;23223;51.006;7.610;2022-08-03T03:12:14;16.20;99.90
37340;DHT22;23223;51.006;7.610;2022-08-03T03:14:41;16.00;99.90
37340;DHT22;23223;51.006;7.610;2022-08-03T03:17:08;15.80;99.90
37340;DHT22;23223;51.006;7.610;2022-08-03T03:19:36;15.60;99.90
37340;DHT22;23223;51.006;7.610;2022-08-03T03:22:03;15.40;99.90
37340;DHT22;23223;51.006;7.610;2022-08-03T03:24:31;15.30;99.90
37340;DHT22;23223;51.006;7.610;2022-08-03T03:26:57;15.20;99.90
37340;DHT22;23223;51.006;7.610;2022-08-03T03:29:23;15.10;99.90
37340;DHT22;23223;51.006;7.610;2022-08-03T03:31:49;15.00;99.90
37340;DHT22;23223;51.006;7.610;2022-08-03T03:34:14;14.90;99.90
37340;DHT22;23223;51.006;7.610;2022-08-03T03:36:40;14.90;99.90
37340;DHT22;23223;51.006;7.610;2022-08-03T03:39:06;14.80;99.90
37340;DHT22;23223;51.006;7.610;2022-08-03T03:41:32;14.80;99.90
37340;DHT22;23223;51.006;7.610;2022-08-03T03:43:58;14.70;99.90
37340;DHT22;23223;51.006;7.610;2022-08-03T03:46:24;14.70;99.90
37340;DHT22;23223;51.006;7.610;2022-08-03T03:48:50;14.70;99.90
37340;DHT22;23223;51.006;7.610;2022-08-03T03:51:15;14.60;99.90
37340;DHT22;23223;51.006;7.610;2022-08-03T03:53:54;14.60;99.90
37340;DHT22;23223;51.006;7.610;2022-08-03T03:56:20;14.50;99.90
37340;DHT22;23223;51.006;7.610;2022-08-03T03:58:45;14.50;99.90
37340;DHT22;23223;51.006;7.610;2022-08-03T04:01:11;14.50;99.90
37340;DHT22;23223;51.006;7.610;2022-08-03T04:03:37;14.50;99.90
37340;DHT22;23223;51.006;7.610;2022-08-03T04:06:03;14.40;99.90
37340;DHT22;23223;51.006;7.610;2022-08-03T04:08:47;14.40;99.90
37340;DHT22;23223;51.006;7.610;2022-08-03T04:11:37;14.40;99.90
37340;DHT22;23223;51.006;7.610;2022-08-03T04:14:08;14.40;99.90
37340;DHT22;23223;51.006;7.610;2022-08-03T04:16:37;14.30;99.90
37340;DHT22;23223;51.006;7.610;2022-08-03T04:19:07;14.30;99.90
37340;DHT22;23223;51.006;7.610;2022-08-03T04:21:37;14.40;99.90
37340;DHT22;23223;51.006;7.610;2022-08-03T04:24:07;14.50;99.90
37340;DHT22;23223;51.006;7.610;2022-08-03T04:26:38;14.50;99.90
37340;DHT22;23223;51.006;7.610;2022-08-03T04:29:05;14.60;99.90
37340;DHT22;23223;51.006;7.610;2022-08-03T04:31:31;14.70;99.90
37340;DHT22;23223;51.006;7.610;2022-08-03T04:33:58;14.90;99.90
37340;DHT22;23223;51.006;7.610;2022-08-03T04:36:26;14.90;99.90
37340;DHT22;23223;51.006;7.610;2022-08-03T04:39:01;15.00;99.90
37340;DHT22;23223;51.006;7.610;2022-08-03T04:41:29;15.00;99.90
37340;DHT22;23223;51.006;7.610;2022-08-03T04:43:57;15.00;99.90
37340;DHT22;23223;51.006;7.610;2022-08-03T04:46:27;15.10;99.90
37340;DHT22;23223;51.006;7.610;2022-08-03T04:48:54;15.20;99.90
37340;DHT22;23223;51.006;7.610;2022-08-03T04:51:20;15.30;99.90
37340;DHT22;23223;51.006;7.610;2022-08-03T04:53:46;15.60;99.90
37340;DHT22;23223;51.006;7.610;2022-08-03T04:56:12;16.00;99.90
37340;DHT22;23223;51.006;7.610;2022-08-03T04:58:37;16.30;99.90
37340;DHT22;23223;51.006;7.610;2022-08-03T05:01:03;16.60;99.90
37340;DHT22;23223;51.006;7.610;2022-08-03T05:03:28;16.80;99.90
37340;DHT22;23223;51.006;7.610;2022-08-03T05:05:56;16.90;99.90
37340;DHT22;23223;51.006;7.610;2022-08-03T05:08:21;16.90;99.90
37340;DHT22;23223;51.006;7.610;2022-08-03T05:10:47;16.90;99.90
37340;DHT22;23223;51.006;7.610;2022-08-03T05:13:13;16.80;99.90
37340;DHT22;23223;51.006;7.610;2022-08-03T05:15:39;16.70;99.90
37340;DHT22;23223;51.006;7.610;2022-08-03T05:18:05;16.60;99.90
37340;DHT22;23223;51.006;7.610;2022-08-03T05:20:31;16.60;99.90
37340;DHT22;23223;51.006;7.610;2022-08-03T05:22:56;16.60;99.90
37340;DHT22;23223;51.006;7.610;2022-08-03T05:25:23;16.60;99.90
37340;DHT22;23223;51.006;7.610;2022-08-03T05:27:49;16.60;99.90
37340;DHT22;23223;51.006;7.610;2022-08-03T05:30:14;16.60;99.90
37340;DHT22;23223;51.006;7.610;2022-08-03T05:32:40;16.60;99.90
37340;DHT22;23223;51.006;7.610;2022-08-03T05:35:06;16.80;99.90
37340;DHT22;23223;51.006;7.610;2022-08-03T05:37:32;16.90;99.90
37340;DHT22;23223;51.006;7.610;2022-08-03T05:39:57;17.00;99.90
37340;DHT22;23223;51.006;7.610;2022-08-03T05:42:23;17.20;99.90
37340;DHT22;23223;51.006;7.610;2022-08-03T05:44:48;17.30;99.90
37340;DHT22;23223;51.006;7.610;2022-08-03T05:47:14;17.40;99.90
37340;DHT22;23223;51.006;7.610;2022-08-03T05:49:39;17.50;99.90
37340;DHT22;23223;51.006;7.610;2022-08-03T05:52:05;17.50;99.90
37340;DHT22;23223;51.006;7.610;2022-08-03T05:54:30;17.60;99.90
37340;DHT22;23223;51.006;7.610;2022-08-03T05:56:56;17.70;99.90
37340;DHT22;23223;51.006;7.610;2022-08-03T05:59:21;17.80;99.90
37340;DHT22;23223;51.006;7.610;2022-08-03T06:01:47;18.00;99.90
37340;DHT22;23223;51.006;7.610;2022-08-03T06:04:12;18.00;99.90
37340;DHT22;23223;51.006;7.610;2022-08-03T06:06:38;18.10;99.90
37340;DHT22;23223;51.006;7.610;2022-08-03T06:09:03;18.30;99.90
37340;DHT22;23223;51.006;7.610;2022-08-03T06:11:29;18.50;99.90
37340;DHT22;23223;51.006;7.610;2022-08-03T06:13:54;18.70;99.90
37340;DHT22;23223;51.006;7.610;2022-08-03T06:16:20;18.90;99.90
37340;DHT22;23223;51.006;7.610;2022-08-03T06:18:46;19.00;99.90
37340;DHT22;23223;51.006;7.610;2022-08-03T06:21:11;19.20;99.90
37340;DHT22;23223;51.006;7.610;2022-08-03T06:23:37;19.50;99.90
37340;DHT22;23223;51.006;7.610;2022-08-03T06:26:02;19.60;99.90
37340;DHT22;23223;51.006;7.610;2022-08-03T06:28:29;19.90;99.90
37340;DHT22;23223;51.006;7.610;2022-08-03T06:30:54;20.10;99.90
37340;DHT22;23223;51.006;7.610;2022-08-03T06:33:20;20.30;99.90
37340;DHT22;23223;51.006;7.610;2022-08-03T06:35:45;20.60;99.90
37340;DHT22;23223;51.006;7.610;2022-08-03T06:38:11;20.90;99.90
37340;DHT22;23223;51.006;7.610;2022-08-03T06:40:37;21.20;99.90
37340;DHT22;23223;51.006;7.610;2022-08-03T06:43:06;21.50;99.90
37340;DHT22;23223;51.006;7.610;2022-08-03T06:45:32;22.00;99.90
37340;DHT22;23223;51.006;7.610;2022-08-03T06:48:04;22.30;99.90
37340;DHT22;23223;51.006;7.610;2022-08-03T06:50:30;22.70;99.90
37340;DHT22;23223;51.006;7.610;2022-08-03T06:52:56;23.20;99.90
37340;DHT22;23223;51.006;7.610;2022-08-03T06:55:21;23.60;99.90
37340;DHT22;23223;51.006;7.610;2022-08-03T06:57:47;24.20;99.90
37340;DHT22;23223;51.006;7.610;2022-08-03T07:00:13;25.00;99.90
37340;DHT22;23223;51.006;7.610;2022-08-03T07:02:39;25.40;99.90
37340;DHT22;23223;51.006;7.610;2022-08-03T07:05:05;25.90;99.90
37340;DHT22;23223;51.006;7.610;2022-08-03T07:07:31;26.30;99.90
37340;DHT22;23223;51.006;7.610;2022-08-03T07:09:56;26.70;99.90
37340;DHT22;23223;51.006;7.610;2022-08-03T07:12:22;27.10;99.90
37340;DHT22;23223;51.006;7.610;2022-08-03T07:14:48;27.50;99.90
37340;DHT22;23223;51.006;7.610;2022-08-03T07:17:13;27.90;99.90
37340;DHT22;23223;51.006;7.610;2022-08-03T07:19:39;28.10;99.90
37340;DHT22;23223;51.006;7.610;2022-08-03T07:22:05;28.20;99.90
37340;DHT22;23223;51.006;7.610;2022-08-03T07:24:30;28.60;99.90
37340;DHT22;23223;51.006;7.610;2022-08-03T07:26:56;28.90;99.90
37340;DHT22;23223;51.006;7.610;2022-08-03T07:29:22;29.20;99.90
37340;DHT22;23223;51.006;7.610;2022-08-03T07:31:47;29.70;99.90
37340;DHT22;23223;51.006;7.610;2022-08-03T07:34:13;30.00;99.90
37340;DHT22;23223;51.006;7.610;2022-08-03T07:36:39;30.20;99.90
37340;DHT22;23223;51.006;7.610;2022-08-03T07:39:04;30.50;99.90
37340;DHT22;23223;51.006;7.610;2022-08-03T07:41:30;31.00;99.90
37340;DHT22;23223;51.006;7.610;2022-08-03T07:43:56;31.30;99.90
37340;DHT22;23223;51.006;7.610;2022-08-03T07:46:21;31.60;99.90
37340;DHT22;23223;51.006;7.610;2022-08-03T07:48:47;32.00;99.90
37340;DHT22;23223;51.006;7.610;2022-08-03T07:51:13;32.40;99.90
37340;DHT22;23223;51.006;7.610;2022-08-03T07:53:38;32.60;99.90
37340;DHT22;23223;51.006;7.610;2022-08-03T07:56:04;32.60;99.90
37340;DHT22;23223;51.006;7.610;2022-08-03T07:58:30;32.60;99.50
37340;DHT22;23223;51.006;7.610;2022-08-03T08:00:55;32.70;99.10
37340;DHT22;23223;51.006;7.610;2022-08-03T08:03:21;32.90;98.20
37340;DHT22;23223;51.006;7.610;2022-08-03T08:05:47;32.70;99.90
37340;DHT22;23223;51.006;7.610;2022-08-03T08:08:12;32.60;97.40
37340;DHT22;23223;51.006;7.610;2022-08-03T08:10:38;32.70;97.10
37340;DHT22;23223;51.006;7.610;2022-08-03T08:13:04;32.60;96.10
37340;DHT22;23223;51.006;7.610;2022-08-03T08:15:30;32.30;96.70
37340;DHT22;23223;51.006;7.610;2022-08-03T08:17:59;32.40;95.40
37340;DHT22;23223;51.006;7.610;2022-08-03T08:20:28;32.90;94.90
37340;DHT22;23223;51.006;7.610;2022-08-03T08:23:04;33.30;94.70
37340;DHT22;23223;51.006;7.610;2022-08-03T08:25:30;33.80;92.60
37340;DHT22;23223;51.006;7.610;2022-08-03T08:27:57;34.10;91.20
37340;DHT22;23223;51.006;7.610;2022-08-03T08:30:25;34.30;91.10
37340;DHT22;23223;51.006;7.610;2022-08-03T08:32:51;34.50;89.50
37340;DHT22;23223;51.006;7.610;2022-08-03T08:35:17;34.90;88.10
37340;DHT22;23223;51.006;7.610;2022-08-03T08:37:44;34.70;89.20
37340;DHT22;23223;51.006;7.610;2022-08-03T08:40:10;35.00;85.10
37340;DHT22;23223;51.006;7.610;2022-08-03T08:42:38;35.40;82.80
37340;DHT22;23223;51.006;7.610;2022-08-03T08:45:05;34.70;81.40
37340;DHT22;23223;51.006;7.610;2022-08-03T08:47:35;35.10;81.30
37340;DHT22;23223;51.006;7.610;2022-08-03T08:50:02;35.10;81.90
37340;DHT22;23223;51.006;7.610;2022-08-03T08:52:28;35.40;81.60
37340;DHT22;23223;51.006;7.610;2022-08-03T08:54:59;35.50;79.90
37340;DHT22;23223;51.006;7.610;2022-08-03T08:57:29;35.60;80.10
37340;DHT22;23223;51.006;7.610;2022-08-03T08:59:55;35.90;79.80
37340;DHT22;23223;51.006;7.610;2022-08-03T09:02:25;35.70;78.40
37340;DHT22;23223;51.006;7.610;2022-08-03T09:04:54;35.40;77.90
37340;DHT22;23223;51.006;7.610;2022-08-03T09:07:19;34.90;76.80
37340;DHT22;23223;51.006;7.610;2022-08-03T09:09:45;35.30;77.50
37340;DHT22;23223;51.006;7.610;2022-08-03T09:12:10;35.70;80.30
37340;DHT22;23223;51.006;7.610;2022-08-03T09:14:36;35.70;78.60
37340;DHT22;23223;51.006;7.610;2022-08-03T09:17:03;35.70;78.80
37340;DHT22;23223;51.006;7.610;2022-08-03T09:19:30;35.60;78.90
37340;DHT22;23223;51.006;7.610;2022-08-03T09:22:16;35.40;75.70
37340;DHT22;23223;51.006;7.610;2022-08-03T09:25:03;35.70;75.40
37340;DHT22;23223;51.006;7.610;2022-08-03T09:27:44;36.10;74.40
37340;DHT22;23223;51.006;7.610;2022-08-03T09:30:14;36.20;74.00
37340;DHT22;23223;51.006;7.610;2022-08-03T09:32:41;36.20;74.10
37340;DHT22;23223;51.006;7.610;2022-08-03T09:35:09;36.00;73.20
37340;DHT22;23223;51.006;7.610;2022-08-03T09:37:36;36.30;75.00
37340;DHT22;23223;51.006;7.610;2022-08-03T09:40:02;36.30;72.40
37340;DHT22;23223;51.006;7.610;2022-08-03T09:42:28;36.30;73.90
37340;DHT22;23223;51.006;7.610;2022-08-03T09:44:53;36.60;74.00
37340;DHT22;23223;51.006;7.610;2022-08-03T09:47:30;36.80;71.70
37340;DHT22;23223;51.006;7.610;2022-08-03T09:50:02;37.00;72.30
37340;DHT22;23223;51.006;7.610;2022-08-03T09:52:30;37.20;70.10
37340;DHT22;23223;51.006;7.610;2022-08-03T09:54:56;37.20;70.80
37340;DHT22;23223;51.006;7.610;2022-08-03T09:57:24;37.30;69.50
37340;DHT22;23223;51.006;7.610;2022-08-03T09:59:52;37.50;69.40
37340;DHT22;23223;51.006;7.610;2022-08-03T10:02:26;37.70;68.80
37340;DHT22;23223;51.006;7.610;2022-08-03T10:04:52;37.30;65.30
37340;DHT22;23223;51.006;7.610;2022-08-03T10:07:20;37.50;67.10
37340;DHT22;23223;51.006;7.610;2022-08-03T10:10:01;37.60;64.80
37340;DHT22;23223;51.006;7.610;2022-08-03T10:12:27;37.60;64.60
37340;DHT22;23223;51.006;7.610;2022-08-03T10:14:53;37.30;64.30
37340;DHT22;23223;51.006;7.610;2022-08-03T10:17:20;37.60;64.00
37340;DHT22;23223;51.006;7.610;2022-08-03T10:19:47;37.90;65.50
37340;DHT22;23223;51.006;7.610;2022-08-03T10:22:15;37.80;64.40
37340;DHT22;23223;51.006;7.610;2022-08-03T10:24:59;38.10;64.90
37340;DHT22;23223;51.006;7.610;2022-08-03T10:27:26;38.10;62.70
37340;DHT22;23223;51.006;7.610;2022-08-03T10:30:00;38.30;62.70
37340;DHT22;23223;51.006;7.610;2022-08-03T10:33:01;38.70;62.30
37340;DHT22;23223;51.006;7.610;2022-08-03T10:35:28;38.60;62.90
37340;DHT22;23223;51.006;7.610;2022-08-03T10:37:55;38.70;62.70
37340;DHT22;23223;51.006;7.610;2022-08-03T10:40:22;38.70;63.00
37340;DHT22;23223;51.006;7.610;2022-08-03T10:42:50;39.20;60.00
37340;DHT22;23223;51.006;7.610;2022-08-03T10:45:20;39.30;61.20
37340;DHT22;23223;51.006;7.610;2022-08-03T10:47:48;39.70;59.70
37340;DHT22;23223;51.006;7.610;2022-08-03T10:50:15;39.60;58.10
37340;DHT22;23223;51.006;7.610;2022-08-03T10:53:05;39.50;56.40
37340;DHT22;23223;51.006;7.610;2022-08-03T10:55:36;39.80;58.20
37340;DHT22;23223;51.006;7.610;2022-08-03T11:01:09;38.90;56.50
37340;DHT22;23223;51.006;7.610;2022-08-03T11:06:21;38.60;56.70
37340;DHT22;23223;51.006;7.610;2022-08-03T11:08:49;38.80;57.40
37340;DHT22;23223;51.006;7.610;2022-08-03T11:11:38;39.20;58.90
37340;DHT22;23223;51.006;7.610;2022-08-03T11:16:39;39.90;57.20
37340;DHT22;23223;51.006;7.610;2022-08-03T11:19:11;39.60;56.20
37340;DHT22;23223;51.006;7.610;2022-08-03T11:30:09;39.30;55.20
37340;DHT22;23223;51.006;7.610;2022-08-03T11:35:58;39.30;54.90
37340;DHT22;23223;51.006;7.610;2022-08-03T11:38:23;39.20;54.20
37340;DHT22;23223;51.006;7.610;2022-08-03T11:40:51;39.20;54.40
37340;DHT22;23223;51.006;7.610;2022-08-03T11:51:02;40.00;53.20
37340;DHT22;23223;51.006;7.610;2022-08-03T11:53:28;39.80;54.80
37340;DHT22;23223;51.006;7.610;2022-08-03T11:55:57;40.00;53.40
37340;DHT22;23223;51.006;7.610;2022-08-03T11:58:23;40.40;54.90
37340;DHT22;23223;51.006;7.610;2022-08-03T12:00:50;40.80;54.30
37340;DHT22;23223;51.006;7.610;2022-08-03T12:03:19;40.70;53.30
37340;DHT22;23223;51.006;7.610;2022-08-03T12:05:47;40.70;52.30
37340;DHT22;23223;51.006;7.610;2022-08-03T12:08:17;40.10;52.30
37340;DHT22;23223;51.006;7.610;2022-08-03T12:10:48;39.80;52.80
37340;DHT22;23223;51.006;7.610;2022-08-03T12:13:15;40.20;54.70
37340;DHT22;23223;51.006;7.610;2022-08-03T12:15:41;40.30;52.70
37340;DHT22;23223;51.006;7.610;2022-08-03T12:18:15;40.50;52.70
37340;DHT22;23223;51.006;7.610;2022-08-03T12:20:42;40.50;52.50
37340;DHT22;23223;51.006;7.610;2022-08-03T12:23:08;40.70;52.60
37340;DHT22;23223;51.006;7.610;2022-08-03T12:25:35;41.10;52.80
37340;DHT22;23223;51.006;7.610;2022-08-03T12:28:12;40.80;51.60
37340;DHT22;23223;51.006;7.610;2022-08-03T12:30:41;41.00;51.40
37340;DHT22;23223;51.006;7.610;2022-08-03T12:36:20;40.10;51.10
37340;DHT22;23223;51.006;7.610;2022-08-03T12:38:57;39.90;52.30
37340;DHT22;23223;51.006;7.610;2022-08-03T12:41:34;39.90;51.30
37340;DHT22;23223;51.006;7.610;2022-08-03T12:44:05;40.70;52.80
37340;DHT22;23223;51.006;7.610;2022-08-03T12:46:36;40.70;51.20
37340;DHT22;23223;51.006;7.610;2022-08-03T12:49:08;41.00;50.40
37340;DHT22;23223;51.006;7.610;2022-08-03T12:51:36;41.20;49.50
37340;DHT22;23223;51.006;7.610;2022-08-03T12:54:04;41.10;48.70
37340;DHT22;23223;51.006;7.610;2022-08-03T12:56:29;41.20;49.30
37340;DHT22;23223;51.006;7.610;2022-08-03T12:58:55;40.80;49.50
37340;DHT22;23223;51.006;7.610;2022-08-03T13:01:21;40.50;49.90
37340;DHT22;23223;51.006;7.610;2022-08-03T13:03:50;40.30;50.30
37340;DHT22;23223;51.006;7.610;2022-08-03T13:06:22;40.20;50.00
37340;DHT22;23223;51.006;7.610;2022-08-03T13:08:48;39.90;50.30
37340;DHT22;23223;51.006;7.610;2022-08-03T13:11:24;40.10;50.20
37340;DHT22;23223;51.006;7.610;2022-08-03T13:13:51;40.30;49.10
37340;DHT22;23223;51.006;7.610;2022-08-03T13:16:17;40.80;48.30
37340;DHT22;23223;51.006;7.610;2022-08-03T13:18:43;40.90;49.70
37340;DHT22;23223;51.006;7.610;2022-08-03T13:21:12;40.90;49.60
37340;DHT22;23223;51.006;7.610;2022-08-03T13:23:38;40.80;49.00
37340;DHT22;23223;51.006;7.610;2022-08-03T13:26:04;40.60;49.40
37340;DHT22;23223;51.006;7.610;2022-08-03T13:28:29;41.00;51.60
37340;DHT22;23223;51.006;7.610;2022-08-03T13:30:55;41.20;49.40
37340;DHT22;23223;51.006;7.610;2022-08-03T13:33:20;40.80;49.90
37340;DHT22;23223;51.006;7.610;2022-08-03T13:35:46;41.10;49.10
37340;DHT22;23223;51.006;7.610;2022-08-03T13:38:12;41.20;48.50
37340;DHT22;23223;51.006;7.610;2022-08-03T13:40:37;40.70;47.30
37340;DHT22;23223;51.006;7.610;2022-08-03T13:43:03;40.40;49.00
37340;DHT22;23223;51.006;7.610;2022-08-03T13:45:28;40.50;49.80
37340;DHT22;23223;51.006;7.610;2022-08-03T13:47:54;40.10;46.60
37340;DHT22;23223;51.006;7.610;2022-08-03T13:50:20;39.80;47.00
37340;DHT22;23223;51.006;7.610;2022-08-03T13:52:45;40.00;47.10
37340;DHT22;23223;51.006;7.610;2022-08-03T13:55:11;39.70;47.20
37340;DHT22;23223;51.006;7.610;2022-08-03T13:57:37;39.40;49.30
37340;DHT22;23223;51.006;7.610;2022-08-03T14:00:04;39.10;48.80
37340;DHT22;23223;51.006;7.610;2022-08-03T14:02:33;38.90;49.10
37340;DHT22;23223;51.006;7.610;2022-08-03T14:04:59;38.80;49.80
37340;DHT22;23223;51.006;7.610;2022-08-03T14:07:25;38.60;49.40
37340;DHT22;23223;51.006;7.610;2022-08-03T14:09:50;38.90;50.70
37340;DHT22;23223;51.006;7.610;2022-08-03T14:12:16;39.20;49.90
37340;DHT22;23223;51.006;7.610;2022-08-03T14:14:41;39.50;49.80
37340;DHT22;23223;51.006;7.610;2022-08-03T14:17:07;39.90;51.30
37340;DHT22;23223;51.006;7.610;2022-08-03T14:19:32;40.00;50.60
37340;DHT22;23223;51.006;7.610;2022-08-03T14:21:58;39.80;49.10
37340;DHT22;23223;51.006;7.610;2022-08-03T14:24:24;40.00;51.40
37340;DHT22;23223;51.006;7.610;2022-08-03T14:26:49;39.40;49.50
37340;DHT22;23223;51.006;7.610;2022-08-03T14:29:15;39.10;50.40
37340;DHT22;23223;51.006;7.610;2022-08-03T14:31:40;38.60;51.30
37340;DHT22;23223;51.006;7.610;2022-08-03T14:34:06;38.30;50.60
37340;DHT22;23223;51.006;7.610;2022-08-03T14:36:31;37.60;50.10
37340;DHT22;23223;51.006;7.610;2022-08-03T14:38:57;37.00;50.80
37340;DHT22;23223;51.006;7.610;2022-08-03T14:41:23;36.50;51.70
37340;DHT22;23223;51.006;7.610;2022-08-03T14:43:48;36.40;52.20
37340;DHT22;23223;51.006;7.610;2022-08-03T14:46:14;36.60;52.50
37340;DHT22;23223;51.006;7.610;2022-08-03T14:48:39;36.60;52.70
37340;DHT22;23223;51.006;7.610;2022-08-03T14:51:05;36.30;51.50
37340;DHT22;23223;51.006;7.610;2022-08-03T14:53:31;36.10;52.20
37340;DHT22;23223;51.006;7.610;2022-08-03T14:55:58;36.10;52.50
37340;DHT22;23223;51.006;7.610;2022-08-03T14:58:24;35.90;52.80
37340;DHT22;23223;51.006;7.610;2022-08-03T15:00:51;35.80;53.10
37340;DHT22;23223;51.006;7.610;2022-08-03T15:03:18;35.90;54.60
37340;DHT22;23223;51.006;7.610;2022-08-03T15:05:47;35.90;52.40
37340;DHT22;23223;51.006;7.610;2022-08-03T15:08:13;35.80;54.70
37340;DHT22;23223;51.006;7.610;2022-08-03T15:10:38;35.80;54.20
37340;DHT22;23223;51.006;7.610;2022-08-03T15:13:04;35.80;53.30
37340;DHT22;23223;51.006;7.610;2022-08-03T15:15:29;35.60;53.60
37340;DHT22;23223;51.006;7.610;2022-08-03T15:17:55;35.50;56.10
37340;DHT22;23223;51.006;7.610;2022-08-03T15:20:20;35.40;54.20
37340;DHT22;23223;51.006;7.610;2022-08-03T15:22:46;35.30;54.40
37340;DHT22;23223;51.006;7.610;2022-08-03T15:25:12;35.30;56.90
37340;DHT22;23223;51.006;7.610;2022-08-03T15:27:37;35.30;54.60
37340;DHT22;23223;51.006;7.610;2022-08-03T15:30:03;35.10;54.90
37340;DHT22;23223;51.006;7.610;2022-08-03T15:32:31;34.90;55.30
37340;DHT22;23223;51.006;7.610;2022-08-03T15:34:57;34.70;56.50
37340;DHT22;23223;51.006;7.610;2022-08-03T15:37:23;34.70;56.90
37340;DHT22;23223;51.006;7.610;2022-08-03T15:39:49;34.80;56.30
37340;DHT22;23223;51.006;7.610;2022-08-03T15:42:15;34.80;56.50
37340;DHT22;23223;51.006;7.610;2022-08-03T15:44:40;34.60;56.50
37340;DHT22;23223;51.006;7.610;2022-08-03T15:47:06;34.50;56.80
37340;DHT22;23223;51.006;7.610;2022-08-03T15:49:32;34.50;57.90
37340;DHT22;23223;51.006;7.610;2022-08-03T15:51:57;34.50;56.70
37340;DHT22;23223;51.006;7.610;2022-08-03T15:54:23;34.80;57.60
37340;DHT22;23223;51.006;7.610;2022-08-03T15:56:49;34.90;56.80
37340;DHT22;23223;51.006;7.610;2022-08-03T15:59:14;35.00;58.20
37340;DHT22;23223;51.006;7.610;2022-08-03T16:01:40;35.00;56.00
37340;DHT22;23223;51.006;7.610;2022-08-03T16:04:06;34.80;56.20
37340;DHT22;23223;51.006;7.610;2022-08-03T16:06:31;34.50;57.00
37340;DHT22;23223;51.006;7.610;2022-08-03T16:08:57;34.30;57.60
37340;DHT22;23223;51.006;7.610;2022-08-03T16:11:22;34.20;57.70